DLH54F LIRF-EDDH
Flight info
| Callsign | DLH54F |
|---|---|
| Flight time | N/A |
| Altitude | 36000 |
| Route | SOVAN DCT AMTEL DCT NEVMO DCT DIKEM DCT SUMIR DCT BRENO DCT KONIN DCT KEMES DCT ABGUS DCT DIRBO/N0423F230 T902 RARUP RARUP6A |
| Aircraft | A320/M-SDE3FGHIRWY/LB1 |
Departure
| Time | N/A |
|---|---|
| Airport | Rome–Fiumicino Leonardo da Vinci International Airport (LIRF) |
Arrival
| Time | 2026-05-07 13:54 |
|---|---|
| Airport | Hamburg Helmut Schmidt Airport (EDDH) |
| Time | Latitude | Longitude | Altitude | Speed | Heading |
|---|---|---|---|---|---|
| 2026-05-07 13:42 | 53.07119 | 10.42252 | 12799 ft | 395 kts | 313° |
| 2026-05-07 13:42 | 53.08955 | 10.38981 | 12184 ft | 390 kts | 313° |
| 2026-05-07 13:42 | 53.10825 | 10.35648 | 11567 ft | 386 kts | 313° |
| 2026-05-07 13:43 | 53.12592 | 10.32488 | 11323 ft | 364 kts | 313° |
| 2026-05-07 13:43 | 53.14249 | 10.29527 | 11185 ft | 335 kts | 313° |
| 2026-05-07 13:43 | 53.15774 | 10.26796 | 11056 ft | 310 kts | 313° |
| 2026-05-07 13:43 | 53.17203 | 10.24230 | 10696 ft | 297 kts | 313° |
| 2026-05-07 13:44 | 53.18595 | 10.21728 | 10430 ft | 292 kts | 313° |
| 2026-05-07 13:44 | 53.19976 | 10.19252 | 10182 ft | 291 kts | 313° |
| 2026-05-07 13:44 | 53.21351 | 10.16782 | 9977 ft | 289 kts | 313° |
| 2026-05-07 13:44 | 53.22722 | 10.14317 | 9845 ft | 289 kts | 313° |
| 2026-05-07 13:45 | 53.24094 | 10.11853 | 9708 ft | 290 kts | 314° |
| 2026-05-07 13:45 | 53.25463 | 10.09388 | 9572 ft | 290 kts | 314° |
| 2026-05-07 13:45 | 53.26829 | 10.06921 | 9437 ft | 289 kts | 313° |
| 2026-05-07 13:45 | 53.28193 | 10.04456 | 9302 ft | 288 kts | 314° |
| 2026-05-07 13:46 | 53.29554 | 10.01998 | 9075 ft | 289 kts | 314° |
| 2026-05-07 13:46 | 53.30925 | 9.99519 | 8586 ft | 292 kts | 314° |
| 2026-05-07 13:46 | 53.32295 | 9.97032 | 8050 ft | 289 kts | 314° |
| 2026-05-07 13:46 | 53.33641 | 9.94585 | 7491 ft | 283 kts | 315° |
| 2026-05-07 13:47 | 53.34968 | 9.92170 | 6905 ft | 279 kts | 315° |
| 2026-05-07 13:47 | 53.36276 | 9.89789 | 6368 ft | 277 kts | 315° |
| 2026-05-07 13:47 | 53.37578 | 9.87426 | 5819 ft | 275 kts | 315° |
| 2026-05-07 13:47 | 53.38874 | 9.85078 | 5296 ft | 274 kts | 315° |
| 2026-05-07 13:48 | 53.40171 | 9.82727 | 4822 ft | 275 kts | 315° |
| 2026-05-07 13:48 | 53.41428 | 9.80431 | 4751 ft | 259 kts | 315° |
| 2026-05-07 13:48 | 53.42609 | 9.78260 | 4691 ft | 245 kts | 315° |
| 2026-05-07 13:48 | 53.43731 | 9.76195 | 4607 ft | 236 kts | 315° |
| 2026-05-07 13:49 | 53.44883 | 9.74262 | 4497 ft | 232 kts | 326° |
| 2026-05-07 13:49 | 53.46297 | 9.72978 | 4108 ft | 230 kts | 346° |
| 2026-05-07 13:49 | 53.47815 | 9.72585 | 3942 ft | 221 kts | 4° |
| 2026-05-07 13:49 | 53.49315 | 9.73009 | 3751 ft | 213 kts | 22° |
| 2026-05-07 13:50 | 53.50594 | 9.74125 | 3537 ft | 208 kts | 39° |
| 2026-05-07 13:50 | 53.51612 | 9.75826 | 3278 ft | 207 kts | 51° |
| 2026-05-07 13:50 | 53.52540 | 9.77687 | 2995 ft | 208 kts | 51° |
| 2026-05-07 13:50 | 53.53454 | 9.79520 | 2711 ft | 200 kts | 52° |
| 2026-05-07 13:51 | 53.54325 | 9.81266 | 2451 ft | 189 kts | 52° |
| 2026-05-07 13:51 | 53.55138 | 9.82898 | 2207 ft | 175 kts | 52° |
| 2026-05-07 13:51 | 53.55892 | 9.84414 | 1953 ft | 163 kts | 52° |
| 2026-05-07 13:51 | 53.56588 | 9.85812 | 1778 ft | 148 kts | 51° |
| 2026-05-07 13:52 | 53.57222 | 9.87088 | 1559 ft | 138 kts | 52° |
| 2026-05-07 13:52 | 53.57828 | 9.88308 | 1369 ft | 136 kts | 52° |
| 2026-05-07 13:52 | 53.58428 | 9.89517 | 1184 ft | 135 kts | 51° |
| 2026-05-07 13:52 | 53.59026 | 9.90722 | 1009 ft | 132 kts | 53° |
| 2026-05-07 13:53 | 53.59622 | 9.91925 | 813 ft | 135 kts | 51° |
| 2026-05-07 13:53 | 53.60215 | 9.93121 | 635 ft | 132 kts | 50° |
| 2026-05-07 13:53 | 53.60812 | 9.94324 | 438 ft | 136 kts | 51° |
| 2026-05-07 13:53 | 53.61411 | 9.95532 | 274 ft | 134 kts | 49° |
| 2026-05-07 13:54 | 53.62006 | 9.96733 | 87 ft | 131 kts | 50° |
| 2026-05-07 13:54 | 53.62549 | 9.97835 | 48 ft | 106 kts | 51° |
| 2026-05-07 13:54 | 53.62910 | 9.98565 | 49 ft | 57 kts | 50° |
| 2026-05-07 13:54 | 53.63137 | 9.99025 | 51 ft | 47 kts | 50° |
| 2026-05-07 13:55 | 53.63281 | 9.99357 | 51 ft | 24 kts | 70° |
| 2026-05-07 13:55 | 53.63280 | 9.99618 | 50 ft | 10 kts | 98° |
| 2026-05-07 13:55 | 53.63280 | 9.99626 | 50 ft | 0 kts | 98° |
| 2026-05-07 13:56 | 53.63279 | 9.99630 | 50 ft | 3 kts | 98° |
| 2026-05-07 13:56 | 53.63279 | 9.99757 | 50 ft | 16 kts | 67° |
| 2026-05-07 13:56 | 53.63353 | 9.99915 | 50 ft | 15 kts | 50° |
| 2026-05-07 13:56 | 53.63394 | 9.99997 | 51 ft | 0 kts | 50° |
| 2026-05-07 13:59 | 53.63399 | 10.00008 | 51 ft | 5 kts | 51° |
| 2026-05-07 14:00 | 53.63427 | 10.00102 | 51 ft | 13 kts | 90° |
| 2026-05-07 14:00 | 53.63386 | 10.00196 | 49 ft | 8 kts | 131° |
| 2026-05-07 14:00 | 53.63371 | 10.00283 | 51 ft | 8 kts | 86° |
| 2026-05-07 14:00 | 53.63373 | 10.00327 | 51 ft | 2 kts | 86° |
| 2026-05-07 14:01 | 53.63373 | 10.00337 | 51 ft | 0 kts | 86° |
| 2026-05-07 14:05 | 53.63373 | 10.00338 | 51 ft | 0 kts | 86° |